createdAt,value
2018-04-17T00:00:54.240Z,51.13
2018-04-17T00:03:23.263Z,43.97
2018-04-17T00:05:51.490Z,51.13
2018-04-17T00:08:19.743Z,48.73
2018-04-17T00:10:47.970Z,51.27
2018-04-17T00:13:16.990Z,48.53
2018-04-17T00:15:45.269Z,51.30
2018-04-17T00:18:13.515Z,51.87
2018-04-17T00:20:42.548Z,51.67
2018-04-17T00:23:10.840Z,51.07
2018-04-17T00:25:39.131Z,51.20
2018-04-17T00:28:08.193Z,51.23
2018-04-17T00:30:36.448Z,49.23
2018-04-17T00:33:04.693Z,50.07
2018-04-17T00:35:32.911Z,45.07
2018-04-17T00:38:01.164Z,48.20
2018-04-17T00:40:30.200Z,46.77
2018-04-17T00:42:58.447Z,53.00
2018-04-17T00:45:26.698Z,44.40
2018-04-17T00:47:55.717Z,55.17
2018-04-17T00:50:23.944Z,44.80
2018-04-17T00:52:52.233Z,49.40
2018-04-17T00:55:20.465Z,46.77
2018-04-17T00:57:48.689Z,48.90
2018-04-17T01:00:16.932Z,48.50
2018-04-17T01:02:45.152Z,44.07
2018-04-17T01:05:14.175Z,47.17
2018-04-17T01:07:43.776Z,43.60
2018-04-17T01:10:12.009Z,44.00
2018-04-17T01:12:40.245Z,46.90
2018-04-17T01:15:08.492Z,48.60
2018-04-17T01:17:37.515Z,45.27
2018-04-17T01:20:05.769Z,48.10
2018-04-17T01:22:34.020Z,50.13
2018-04-17T01:25:02.241Z,46.73
2018-04-17T01:27:30.498Z,49.10
2018-04-17T01:29:59.501Z,45.30
2018-04-17T01:32:27.729Z,44.33
2018-04-17T01:34:55.976Z,46.03
2018-04-17T01:37:24.226Z,54.03
2018-04-17T01:39:52.451Z,46.10
2018-04-17T01:42:20.713Z,47.87
2018-04-17T01:44:48.932Z,45.03
2018-04-17T01:47:17.957Z,42.97
2018-04-17T01:49:46.184Z,47.23
2018-04-17T01:52:14.440Z,46.13
2018-04-17T01:54:42.707Z,45.27
2018-04-17T01:57:10.975Z,46.43
2018-04-17T01:59:39.232Z,43.20
2018-04-17T02:02:07.460Z,44.07
2018-04-17T02:04:35.714Z,44.90
2018-04-17T02:07:03.934Z,48.70
2018-04-17T02:09:32.945Z,46.70
2018-04-17T02:12:01.935Z,47.03
2018-04-17T02:14:30.982Z,51.77
2018-04-17T02:16:59.216Z,50.70
2018-04-17T02:19:27.459Z,47.13
2018-04-17T02:21:55.695Z,52.20
2018-04-17T02:24:23.956Z,49.23
2018-04-17T02:26:52.203Z,54.03
2018-04-17T02:29:21.193Z,52.47
2018-04-17T02:31:50.214Z,52.83
2018-04-17T02:34:18.439Z,48.10
2018-04-17T02:36:46.694Z,49.10
2018-04-17T02:39:14.929Z,48.73
2018-04-17T02:41:43.161Z,52.33
2018-04-17T02:44:11.417Z,51.90
2018-04-17T02:46:39.648Z,49.83
2018-04-17T02:49:08.638Z,46.33
2018-04-17T02:51:37.656Z,47.30
2018-04-17T02:54:05.899Z,47.13
2018-04-17T02:56:34.149Z,50.30
2018-04-17T02:59:02.389Z,50.43
2018-04-17T03:01:30.652Z,47.40
2018-04-17T03:03:58.894Z,45.80
2018-04-17T03:06:27.138Z,46.77
2018-04-17T03:08:55.400Z,49.70
2018-04-17T03:11:23.646Z,51.17
2018-04-17T03:13:52.647Z,48.30
2018-04-17T03:16:20.905Z,44.33
2018-04-17T03:18:49.904Z,44.40
2018-04-17T03:21:18.906Z,58.15
2018-04-17T03:23:47.901Z,56.55
2018-04-17T03:26:16.152Z,49.95
2018-04-17T03:28:44.395Z,53.27
2018-04-17T03:31:12.649Z,45.43
2018-04-17T03:33:40.872Z,49.60
2018-04-17T03:36:09.133Z,50.83
2018-04-17T03:38:37.384Z,50.58
2018-04-17T03:41:05.612Z,52.83
2018-04-17T03:43:34.616Z,53.75
2018-04-17T03:46:03.636Z,52.80
2018-04-17T03:48:31.909Z,56.78
2018-04-17T03:51:00.145Z,55.90
2018-04-17T03:53:28.397Z,53.47
2018-04-17T03:55:57.448Z,61.42
2018-04-17T03:58:25.682Z,52.55
2018-04-17T04:00:53.976Z,53.72
2018-04-17T04:03:22.179Z,53.85
2018-04-17T04:05:50.445Z,57.62
2018-04-17T04:08:19.437Z,53.70
2018-04-17T04:10:48.451Z,54.50
2018-04-17T04:13:16.699Z,56.83
2018-04-17T04:15:45.687Z,50.30
2018-04-17T04:18:26.537Z,55.10
2018-04-17T04:21:06.730Z,63.37
2018-04-17T04:23:47.742Z,50.93
2018-04-17T04:26:22.763Z,51.13
2018-04-17T04:28:51.004Z,51.97
2018-04-17T04:31:20.007Z,46.53
2018-04-17T04:33:49.015Z,50.67
2018-04-17T04:36:17.265Z,49.47
2018-04-17T04:38:46.299Z,62.60
2018-04-17T04:41:14.516Z,57.95
2018-04-17T04:43:42.769Z,61.88
2018-04-17T04:46:11.028Z,61.40
2018-04-17T04:48:39.257Z,59.25
2018-04-17T04:51:07.518Z,59.30
2018-04-17T04:53:35.756Z,53.33
2018-04-17T04:56:03.991Z,53.15
2018-04-17T04:58:32.240Z,57.13
2018-04-17T05:01:00.474Z,53.47
2018-04-17T05:03:28.719Z,56.35
2018-04-17T05:05:57.716Z,57.20
2018-04-17T05:08:26.745Z,56.20
2018-04-17T05:10:54.988Z,55.28
2018-04-17T05:13:23.981Z,54.83
2018-04-17T05:15:53.024Z,57.13
2018-04-17T05:18:21.288Z,60.20
2018-04-17T05:20:49.532Z,54.85
2018-04-17T05:23:18.538Z,57.38
2018-04-17T05:25:46.789Z,58.67
2018-04-17T05:28:15.044Z,59.83
2018-04-17T05:30:43.296Z,64.70
2018-04-17T05:33:11.549Z,59.65
2018-04-17T05:35:39.782Z,61.45
2018-04-17T05:38:08.034Z,60.35
2018-04-17T05:40:36.270Z,56.92
2018-04-17T05:43:04.546Z,61.10
2018-04-17T05:45:32.797Z,62.33
2018-04-17T05:48:01.033Z,65.43
2018-04-17T05:50:29.284Z,63.08
2018-04-17T05:52:57.499Z,59.77
2018-04-17T05:55:25.768Z,60.20
2018-04-17T05:57:53.994Z,61.15
2018-04-17T06:00:23.005Z,58.50
2018-04-17T06:02:52.167Z,57.67
2018-04-17T06:05:20.392Z,57.17
2018-04-17T06:07:48.664Z,57.33
2018-04-17T06:10:16.883Z,55.25
2018-04-17T06:12:45.111Z,57.70
2018-04-17T06:15:13.362Z,55.78
2018-04-17T06:17:42.352Z,56.78
2018-04-17T06:20:11.365Z,62.72
2018-04-17T06:22:39.622Z,55.03
2018-04-17T06:25:08.640Z,59.88
2018-04-17T06:27:36.872Z,58.35
2018-04-17T06:30:05.123Z,54.60
2018-04-17T06:32:33.364Z,57.00
2018-04-17T06:35:01.623Z,57.95
2018-04-17T06:37:29.866Z,58.97
2018-04-17T06:39:58.104Z,57.60
2018-04-17T06:42:26.358Z,56.95
2018-04-17T06:44:55.388Z,60.95
2018-04-17T06:47:23.625Z,55.93
2018-04-17T06:49:51.858Z,47.40
2018-04-17T06:52:20.082Z,52.80
2018-04-17T06:54:49.091Z,48.43
2018-04-17T06:57:17.313Z,59.43
2018-04-17T06:59:45.575Z,86.00
2018-04-17T07:02:13.821Z,58.93
2018-04-17T07:04:42.079Z,48.47
2018-04-17T07:07:11.077Z,46.63
2018-04-17T07:09:39.301Z,43.70
2018-04-17T07:12:07.558Z,46.30
2018-04-17T07:14:35.809Z,48.77
2018-04-17T07:17:04.055Z,45.50
2018-04-17T07:19:32.292Z,48.03
2018-04-17T07:22:00.530Z,41.97
2018-04-17T07:24:29.532Z,45.23
2018-04-17T07:26:57.799Z,45.23
2018-04-17T07:29:26.909Z,44.03
2018-04-17T07:31:55.872Z,45.23
2018-04-17T07:34:24.115Z,36.67
2018-04-17T07:36:52.368Z,35.33
2018-04-17T07:39:20.596Z,35.20
2018-04-17T07:41:48.827Z,30.37
2018-04-17T07:44:17.083Z,34.40
2018-04-17T07:46:45.322Z,28.53
2018-04-17T07:49:13.571Z,28.20
2018-04-17T07:51:41.822Z,24.13
2018-04-17T07:54:10.084Z,25.77
2018-04-17T07:56:38.349Z,22.27
2018-04-17T07:59:06.590Z,21.40
2018-04-17T08:01:34.865Z,17.40
2018-04-17T08:04:03.124Z,18.80
2018-04-17T08:06:31.380Z,22.07
2018-04-17T08:08:59.636Z,23.07
2018-04-17T08:11:28.650Z,26.47
2018-04-17T08:13:56.888Z,19.13
2018-04-17T08:16:25.878Z,15.37
2018-04-17T08:18:54.936Z,16.03
2018-04-17T08:21:23.221Z,13.73
2018-04-17T08:23:51.477Z,17.47
2018-04-17T08:26:19.715Z,11.73
2018-04-17T08:28:48.745Z,14.80
2018-04-17T08:31:16.969Z,13.33
2018-04-17T08:33:45.240Z,11.50
2018-04-17T08:36:13.439Z,13.10
2018-04-17T08:38:42.424Z,18.63
2018-04-17T08:41:11.444Z,13.47
2018-04-17T08:43:39.708Z,15.07
2018-04-17T08:46:07.925Z,15.80
2018-04-17T08:48:36.148Z,10.37
2018-04-17T08:51:05.166Z,9.87
2018-04-17T08:53:33.389Z,9.57
2018-04-17T08:56:01.621Z,10.53
2018-04-17T08:58:29.857Z,16.23
2018-04-17T09:00:58.109Z,10.17
2018-04-17T09:03:26.367Z,9.57
2018-04-17T09:05:54.596Z,13.50
2018-04-17T09:08:23.591Z,10.63
2018-04-17T09:10:52.581Z,11.17
2018-04-17T09:13:21.594Z,11.90
2018-04-17T09:15:49.865Z,10.40
2018-04-17T09:18:18.877Z,10.33
2018-04-17T09:20:47.120Z,6.83
2018-04-17T09:23:16.808Z,12.47
2018-04-17T09:25:45.049Z,10.80
2018-04-17T09:28:13.274Z,10.03
2018-04-17T09:30:42.081Z,13.53
2018-04-17T09:33:11.158Z,9.63
2018-04-17T09:35:39.372Z,20.37
2018-04-17T09:38:08.119Z,12.67
2018-04-17T09:40:36.362Z,11.67
2018-04-17T09:43:04.588Z,10.07
2018-04-17T09:45:33.592Z,8.00
2018-04-17T09:48:02.582Z,13.70
2018-04-17T09:50:31.600Z,8.27
2018-04-17T09:52:59.846Z,11.23
2018-04-17T09:55:28.129Z,12.40
2018-04-17T09:57:56.334Z,6.90
2018-04-17T10:00:24.783Z,16.23
2018-04-17T10:02:53.752Z,9.47
2018-04-17T10:05:21.975Z,14.67
2018-04-17T10:07:50.216Z,5.50
2018-04-17T10:10:18.498Z,10.10
2018-04-17T10:12:47.488Z,9.13
2018-04-17T10:15:16.514Z,13.13
2018-04-17T10:17:44.735Z,8.47
2018-04-17T10:20:12.955Z,9.70
2018-04-17T10:22:41.204Z,9.87
2018-04-17T10:25:10.214Z,8.43
2018-04-17T10:27:39.190Z,10.87
2018-04-17T10:30:08.200Z,12.87
2018-04-17T10:32:37.211Z,9.97
2018-04-17T10:35:05.460Z,7.33
2018-04-17T10:37:33.710Z,8.50
2018-04-17T10:40:01.939Z,10.40
2018-04-17T10:42:30.181Z,7.47
2018-04-17T10:44:58.405Z,15.00
2018-04-17T10:47:26.810Z,11.27
2018-04-17T10:49:55.112Z,7.03
2018-04-17T10:52:23.374Z,10.27
2018-04-17T10:54:51.600Z,9.93
2018-04-17T10:57:19.833Z,8.67
2018-04-17T10:59:48.138Z,14.00
2018-04-17T11:02:17.112Z,8.83
2018-04-17T11:04:45.350Z,8.80
2018-04-17T11:07:13.597Z,14.07
2018-04-17T11:09:41.824Z,11.23
2018-04-17T11:12:10.069Z,9.77
2018-04-17T11:14:38.297Z,12.43
2018-04-17T11:17:07.325Z,10.07
2018-04-17T11:19:35.564Z,10.57
2018-04-17T11:22:04.571Z,8.63
2018-04-17T11:24:33.553Z,6.90
2018-04-17T11:27:02.564Z,10.43
2018-04-17T11:29:31.555Z,8.80
2018-04-17T11:32:00.564Z,8.67
2018-04-17T11:34:28.831Z,10.07
2018-04-17T11:36:57.058Z,10.10
2018-04-17T11:39:25.304Z,8.10
2018-04-17T11:41:53.573Z,8.70
2018-04-17T11:44:21.809Z,9.30
2018-04-17T11:46:50.068Z,12.17
2018-04-17T11:49:18.303Z,8.60
2018-04-17T11:51:46.550Z,8.93
2018-04-17T11:54:15.550Z,10.13
2018-04-17T11:56:44.574Z,9.67
2018-04-17T11:59:12.819Z,10.60
2018-04-17T12:01:41.052Z,6.13
2018-04-17T12:04:09.272Z,11.27
2018-04-17T12:06:37.531Z,7.47
2018-04-17T12:09:05.728Z,7.97
2018-04-17T12:11:34.027Z,10.57
2018-04-17T12:14:02.990Z,9.27
2018-04-17T12:16:32.005Z,9.93
2018-04-17T12:19:00.217Z,10.37
2018-04-17T12:21:28.473Z,8.83
2018-04-17T12:23:56.697Z,8.57
2018-04-17T12:26:24.915Z,9.60
2018-04-17T12:28:53.156Z,9.03
2018-04-17T12:31:22.138Z,7.20
2018-04-17T12:33:50.381Z,10.63
2018-04-17T12:36:18.607Z,8.37
2018-04-17T12:38:47.654Z,7.40
2018-04-17T12:41:15.865Z,7.40
2018-04-17T12:43:44.915Z,9.73
2018-04-17T12:46:13.156Z,13.80
2018-04-17T12:48:41.370Z,9.53
2018-04-17T12:51:09.618Z,10.00
2018-04-17T12:53:38.672Z,11.50
2018-04-17T12:56:06.907Z,9.27
2018-04-17T12:58:35.148Z,9.40
2018-04-17T13:01:04.147Z,8.30
2018-04-17T13:03:32.391Z,7.53
2018-04-17T13:06:00.642Z,9.87
2018-04-17T13:08:28.974Z,10.13
2018-04-17T13:10:57.166Z,7.63
2018-04-17T13:13:25.393Z,8.70
2018-04-17T13:15:53.632Z,7.07
2018-04-17T13:18:21.862Z,7.23
2018-04-17T13:20:50.880Z,11.47
2018-04-17T13:23:19.116Z,8.70
2018-04-17T13:25:47.356Z,10.10
2018-04-17T13:28:15.579Z,7.43
2018-04-17T13:30:43.832Z,7.03
2018-04-17T13:33:12.053Z,12.73
2018-04-17T13:35:41.056Z,9.20
2018-04-17T13:38:09.298Z,7.53
2018-04-17T13:40:37.525Z,8.40
2018-04-17T13:43:05.796Z,6.93
2018-04-17T13:45:34.018Z,6.10
2018-04-17T13:48:02.244Z,7.10
2018-04-17T13:50:30.478Z,8.13
2018-04-17T13:52:58.725Z,10.17
2018-04-17T13:55:27.019Z,7.07
2018-04-17T13:57:55.235Z,7.10
2018-04-17T14:00:23.500Z,6.50
2018-04-17T14:02:52.493Z,10.23
2018-04-17T14:05:21.504Z,8.13
2018-04-17T14:07:49.755Z,7.27
2018-04-17T14:10:18.777Z,6.30
2018-04-17T14:12:47.016Z,8.27
2018-04-17T14:15:15.241Z,16.50
2018-04-17T14:17:43.491Z,10.97
2018-04-17T14:20:12.573Z,8.60
2018-04-17T14:22:41.549Z,9.47
2018-04-17T14:25:09.926Z,5.50
2018-04-17T14:27:38.209Z,8.00
2018-04-17T14:30:06.409Z,11.83
2018-04-17T14:32:35.439Z,11.00
2018-04-17T14:35:03.684Z,11.10
2018-04-17T14:37:31.919Z,8.50
2018-04-17T14:40:00.140Z,8.53
2018-04-17T14:42:28.410Z,5.97
2018-04-17T14:44:56.637Z,6.33
2018-04-17T14:47:24.852Z,8.33
2018-04-17T14:49:53.861Z,8.37
2018-04-17T14:52:22.126Z,10.03
2018-04-17T14:54:51.147Z,8.70
2018-04-17T14:57:19.374Z,11.33
2018-04-17T14:59:47.604Z,8.63
2018-04-17T15:02:15.830Z,10.10
2018-04-17T15:04:44.880Z,9.87
2018-04-17T15:07:13.105Z,7.47
2018-04-17T15:09:41.313Z,7.87
2018-04-17T15:12:09.555Z,6.73
2018-04-17T15:14:38.554Z,6.87
2018-04-17T15:17:07.534Z,6.53
2018-04-17T15:19:35.797Z,7.17
2018-04-17T15:22:04.064Z,7.40
2018-04-17T15:24:32.287Z,10.33
2018-04-17T15:27:01.301Z,7.70
2018-04-17T15:29:29.545Z,8.20
2018-04-17T15:31:58.535Z,7.63
2018-04-17T15:34:27.550Z,9.17
2018-04-17T15:36:55.796Z,7.97
2018-04-17T15:39:24.004Z,8.27
2018-04-17T15:41:52.241Z,11.67
2018-04-17T15:44:20.493Z,10.43
2018-04-17T15:46:48.743Z,10.63
2018-04-17T15:49:16.989Z,8.93
2018-04-17T15:51:45.980Z,8.40
2018-04-17T15:54:14.967Z,12.60
2018-04-17T15:56:43.206Z,8.60
2018-04-17T15:59:11.419Z,10.23
2018-04-17T16:01:39.705Z,10.47
2018-04-17T16:04:08.722Z,9.67
2018-04-17T16:06:36.951Z,12.87
2018-04-17T16:09:05.890Z,9.13
2018-04-17T16:11:34.858Z,6.97
2018-04-17T16:14:03.840Z,6.83
2018-04-17T16:16:32.104Z,7.37
2018-04-17T16:19:00.330Z,10.40
2018-04-17T16:21:28.598Z,8.77
2018-04-17T16:23:56.830Z,7.77
2018-04-17T16:26:25.056Z,8.47
2018-04-17T16:28:53.275Z,8.90
2018-04-17T16:31:21.529Z,10.30
2018-04-17T16:33:49.764Z,6.63
2018-04-17T16:36:18.750Z,9.23
2018-04-17T16:38:47.768Z,7.50
2018-04-17T16:41:15.989Z,7.50
2018-04-17T16:43:44.256Z,9.93
2018-04-17T16:46:13.009Z,5.90
2018-04-17T16:48:41.249Z,7.60
2018-04-17T16:51:09.550Z,6.83
2018-04-17T16:53:37.768Z,9.97
2018-04-17T16:56:05.991Z,5.57
2018-04-17T16:58:34.999Z,8.23
2018-04-17T17:01:04.012Z,11.30
2018-04-17T17:03:32.260Z,10.67
2018-04-17T17:06:01.280Z,4.87
2018-04-17T17:08:30.277Z,8.30
2018-04-17T17:10:58.552Z,6.93
2018-04-17T17:13:27.538Z,7.63
2018-04-17T17:15:55.781Z,13.50
2018-04-17T17:18:24.012Z,8.07
2018-04-17T17:20:52.250Z,7.80
2018-04-17T17:23:21.269Z,8.47
2018-04-17T17:25:49.528Z,6.30
2018-04-17T17:28:18.502Z,7.40
2018-04-17T17:30:47.484Z,8.70
2018-04-17T17:33:15.721Z,7.07
2018-04-17T17:35:43.951Z,8.67
2018-04-17T17:38:12.980Z,8.10
2018-04-17T17:40:41.187Z,12.63
2018-04-17T17:43:09.432Z,8.47
2018-04-17T17:45:37.693Z,9.43
2018-04-17T17:48:06.671Z,15.63
2018-04-17T17:50:35.679Z,14.73
2018-04-17T17:53:03.909Z,41.77
2018-04-17T17:55:32.152Z,8.90
2018-04-17T17:58:00.380Z,10.50
2018-04-17T18:00:29.428Z,11.53
2018-04-17T18:02:57.684Z,12.70
2018-04-17T18:05:25.927Z,12.93
2018-04-17T18:07:55.077Z,12.83
2018-04-17T18:10:23.313Z,11.00
2018-04-17T18:12:52.321Z,14.90
2018-04-17T18:15:20.559Z,13.00
2018-04-17T18:17:48.797Z,14.68
2018-04-17T18:20:17.048Z,13.97
2018-04-17T18:22:45.341Z,13.40
2018-04-17T18:25:13.581Z,13.17
2018-04-17T18:27:42.564Z,19.23
2018-04-17T18:30:11.630Z,13.27
2018-04-17T18:32:39.848Z,11.27
2018-04-17T18:35:08.858Z,17.77
2018-04-17T18:37:37.126Z,14.70
2018-04-17T18:40:05.349Z,18.33
2018-04-17T18:42:33.599Z,12.83
2018-04-17T18:45:01.822Z,13.03
2018-04-17T18:47:30.073Z,12.47
2018-04-17T18:49:58.303Z,11.50
2018-04-17T18:52:27.284Z,14.80
2018-04-17T18:54:56.288Z,14.60
2018-04-17T18:57:25.301Z,10.30
2018-04-17T18:59:53.535Z,13.90
2018-04-17T19:02:21.752Z,14.33
2018-04-17T19:04:49.992Z,14.20
2018-04-17T19:07:18.985Z,12.33
2018-04-17T19:09:47.268Z,6.83
2018-04-17T19:12:15.500Z,14.13
2018-04-17T19:14:43.705Z,14.73
2018-04-17T19:17:11.944Z,13.33
2018-04-17T19:19:40.172Z,12.83
2018-04-17T19:22:09.185Z,16.67
2018-04-17T19:24:37.408Z,13.23
2018-04-17T19:27:05.652Z,14.27
2018-04-17T19:29:33.882Z,17.60
2018-04-17T19:32:02.113Z,14.70
2018-04-17T19:34:30.357Z,20.10
2018-04-17T19:36:59.342Z,13.37
2018-04-17T19:39:28.361Z,22.80
2018-04-17T19:41:56.578Z,19.57
2018-04-17T19:44:24.825Z,19.13
2018-04-17T19:46:53.066Z,16.20
2018-04-17T19:49:22.094Z,13.77
2018-04-17T19:51:50.315Z,17.87
2018-04-17T19:54:18.550Z,21.27
2018-04-17T19:56:46.808Z,21.20
2018-04-17T19:59:15.080Z,20.80
2018-04-17T20:01:43.356Z,14.53
2018-04-17T20:04:11.608Z,20.57
2018-04-17T20:06:40.608Z,20.47
2018-04-17T20:09:09.634Z,20.13
2018-04-17T20:11:37.857Z,20.73
2018-04-17T20:14:06.100Z,16.57
2018-04-17T20:16:34.344Z,20.33
2018-04-17T20:19:02.592Z,18.50
2018-04-17T20:21:30.813Z,19.97
2018-04-17T20:23:59.037Z,16.03
2018-04-17T20:26:27.300Z,18.60
2018-04-17T20:28:55.563Z,19.40
2018-04-17T20:31:24.579Z,18.63
2018-04-17T20:33:52.800Z,19.60
2018-04-17T20:36:21.048Z,18.93
2018-04-17T20:38:50.041Z,19.60
2018-04-17T20:41:19.061Z,22.20
2018-04-17T20:43:47.297Z,18.93
2018-04-17T20:46:15.551Z,20.33
2018-04-17T20:48:43.776Z,22.00
2018-04-17T20:51:12.022Z,21.73
2018-04-17T20:53:40.268Z,22.23
2018-04-17T20:56:09.285Z,23.77
2018-04-17T20:58:37.543Z,22.77
2018-04-17T21:01:06.546Z,19.63
2018-04-17T21:03:34.760Z,24.97
2018-04-17T21:06:03.771Z,24.83
2018-04-17T21:08:32.000Z,25.13
2018-04-17T21:11:00.226Z,20.07
2018-04-17T21:13:28.487Z,22.87
2018-04-17T21:15:57.485Z,24.13
2018-04-17T21:18:25.754Z,25.90
2018-04-17T21:20:54.748Z,27.53
2018-04-17T21:23:23.752Z,27.70
2018-04-17T21:25:52.004Z,23.27
2018-04-17T21:28:21.013Z,25.13
2018-04-17T21:30:49.998Z,22.47
2018-04-17T21:33:19.039Z,18.57
2018-04-17T21:35:47.276Z,18.87
2018-04-17T21:38:16.284Z,18.23
2018-04-17T21:40:44.519Z,12.70
2018-04-17T21:43:12.763Z,24.13
2018-04-17T21:45:40.984Z,20.17
2018-04-17T21:48:09.977Z,29.30
2018-04-17T21:50:39.004Z,20.80
2018-04-17T21:53:07.255Z,19.47
2018-04-17T21:55:36.256Z,19.40
2018-04-17T21:58:05.249Z,19.03
2018-04-17T22:00:34.269Z,14.90
2018-04-17T22:03:02.502Z,25.33
2018-04-17T22:05:30.760Z,19.10
2018-04-17T22:07:58.991Z,18.83
2018-04-17T22:10:27.226Z,18.80
2018-04-17T22:12:55.477Z,17.87
2018-04-17T22:15:23.712Z,17.57
2018-04-17T22:17:51.981Z,17.87
2018-04-17T22:20:20.981Z,15.93
2018-04-17T22:22:49.233Z,21.03
2018-04-17T22:25:18.228Z,18.50
2018-04-17T22:27:47.243Z,17.13
2018-04-17T22:30:15.469Z,17.30
2018-04-17T22:32:43.722Z,19.50
2018-04-17T22:35:11.952Z,18.83
2018-04-17T22:37:40.968Z,15.63
2018-04-17T22:40:09.257Z,20.07
2018-04-17T22:42:37.479Z,25.10
2018-04-17T22:45:05.737Z,14.90
2018-04-17T22:47:33.978Z,17.70
2018-04-17T22:50:02.256Z,14.43
2018-04-17T22:52:30.472Z,14.47
2018-04-17T22:54:58.696Z,19.60
2018-04-17T22:57:26.943Z,22.37
2018-04-17T22:59:55.189Z,28.67
2018-04-17T23:02:23.421Z,18.50
2018-04-17T23:04:52.431Z,20.87
2018-04-17T23:07:20.708Z,20.70
2018-04-17T23:09:48.944Z,16.27
2018-04-17T23:12:17.203Z,17.20
2018-04-17T23:14:45.432Z,16.80
2018-04-17T23:17:13.656Z,15.10
2018-04-17T23:19:41.911Z,20.17
2018-04-17T23:22:10.144Z,15.47
2018-04-17T23:24:39.156Z,18.33
2018-04-17T23:27:07.422Z,17.17
2018-04-17T23:29:35.646Z,17.40
2018-04-17T23:32:04.658Z,18.27
2018-04-17T23:34:32.932Z,15.87
2018-04-17T23:37:01.160Z,13.30
2018-04-17T23:39:29.424Z,19.63
2018-04-17T23:41:57.672Z,14.43
2018-04-17T23:44:25.912Z,13.33
2018-04-17T23:46:54.190Z,12.37
2018-04-17T23:49:23.147Z,19.20
2018-04-17T23:51:51.392Z,15.13
2018-04-17T23:54:20.410Z,18.67
2018-04-17T23:56:49.432Z,17.33
2018-04-17T23:59:17.642Z,15.37
